createdAt,value
2023-04-26T00:00:18.096Z,68.57
2023-04-26T00:03:04.337Z,68.81
2023-04-26T00:05:49.890Z,67.70
2023-04-26T00:08:34.794Z,69.00
2023-04-26T00:11:20.532Z,68.99
2023-04-26T00:14:05.799Z,69.37
2023-04-26T00:16:50.695Z,68.89
2023-04-26T00:19:35.919Z,66.56
2023-04-26T00:22:20.704Z,69.35
2023-04-26T00:25:06.534Z,69.10
2023-04-26T00:27:52.274Z,67.66
2023-04-26T00:30:37.915Z,70.55
2023-04-26T00:33:22.580Z,69.05
2023-04-26T00:36:08.442Z,69.43
2023-04-26T00:38:53.547Z,71.87
2023-04-26T00:41:39.122Z,70.55
2023-04-26T00:44:23.950Z,70.65
2023-04-26T00:47:09.773Z,70.08
2023-04-26T00:49:55.399Z,68.58
2023-04-26T00:52:40.513Z,68.64
2023-04-26T00:55:27.151Z,70.16
2023-04-26T00:58:12.532Z,69.42
2023-04-26T01:00:59.543Z,72.44
2023-04-26T01:03:46.651Z,69.55
2023-04-26T01:06:36.320Z,69.97
2023-04-26T01:09:21.587Z,68.53
2023-04-26T01:12:07.607Z,70.04
2023-04-26T01:14:53.229Z,68.52
2023-04-26T01:17:38.671Z,70.58
2023-04-26T01:20:24.229Z,68.44
2023-04-26T01:23:09.942Z,68.84
2023-04-26T01:25:56.248Z,65.96
2023-04-26T01:28:41.451Z,68.01
2023-04-26T01:31:27.008Z,68.69
2023-04-26T01:34:12.323Z,68.75
2023-04-26T01:36:57.273Z,67.17
2023-04-26T01:39:42.252Z,69.81
2023-04-26T01:42:27.375Z,71.18
2023-04-26T01:45:12.679Z,70.69
2023-04-26T01:47:58.527Z,70.60
2023-04-26T01:50:43.427Z,69.12
2023-04-26T01:53:28.558Z,71.22
2023-04-26T01:56:13.477Z,67.81
2023-04-26T01:58:59.169Z,66.06
2023-04-26T02:01:44.202Z,65.72
2023-04-26T02:04:29.355Z,66.95
2023-04-26T02:07:14.083Z,68.63
2023-04-26T02:09:58.994Z,67.93
2023-04-26T02:12:44.129Z,66.67
2023-04-26T02:15:29.413Z,66.20
2023-04-26T02:18:14.691Z,65.25
2023-04-26T02:20:59.418Z,65.35
2023-04-26T02:23:44.881Z,66.83
2023-04-26T02:26:32.487Z,66.38
2023-04-26T02:29:17.674Z,67.58
2023-04-26T02:32:02.848Z,67.33
2023-04-26T02:34:47.777Z,65.08
2023-04-26T02:37:34.176Z,67.10
2023-04-26T02:40:20.076Z,65.83
2023-04-26T02:43:05.340Z,65.92
2023-04-26T02:45:56.976Z,66.12
2023-04-26T02:48:42.076Z,66.77
2023-04-26T02:51:28.550Z,68.19
2023-04-26T02:54:13.671Z,67.65
2023-04-26T02:56:58.871Z,68.07
2023-04-26T02:59:44.087Z,70.75
2023-04-26T03:02:29.423Z,66.02
2023-04-26T03:05:15.028Z,64.69
2023-04-26T03:08:00.289Z,66.22
2023-04-26T03:10:47.175Z,65.18
2023-04-26T03:13:32.435Z,69.05
2023-04-26T03:16:19.406Z,68.42
2023-04-26T03:19:04.231Z,68.46
2023-04-26T03:21:49.581Z,67.72
2023-04-26T03:24:34.251Z,68.15
2023-04-26T03:27:19.499Z,68.27
2023-04-26T03:30:05.585Z,65.26
2023-04-26T03:32:51.145Z,68.47
2023-04-26T03:35:36.780Z,66.94
2023-04-26T03:38:22.394Z,65.52
2023-04-26T03:41:07.486Z,69.14
2023-04-26T03:43:52.665Z,66.40
2023-04-26T03:46:37.942Z,67.06
2023-04-26T03:49:23.101Z,66.18
2023-04-26T03:52:07.957Z,64.99
2023-04-26T03:54:52.941Z,68.03
2023-04-26T03:57:38.408Z,63.53
2023-04-26T04:00:23.650Z,63.94
2023-04-26T04:03:09.053Z,66.33
2023-04-26T04:05:54.034Z,66.06
2023-04-26T04:08:38.948Z,66.98
2023-04-26T04:11:24.062Z,65.98
2023-04-26T04:14:09.701Z,67.08
2023-04-26T04:16:54.515Z,65.60
2023-04-26T04:19:39.713Z,68.16
2023-04-26T04:22:24.768Z,69.79
2023-04-26T04:25:10.830Z,68.52
2023-04-26T04:27:56.852Z,68.35
2023-04-26T04:30:44.004Z,70.10
2023-04-26T04:33:29.983Z,68.98
2023-04-26T04:36:18.445Z,68.22
2023-04-26T04:39:04.526Z,67.44
2023-04-26T04:41:50.236Z,66.79
2023-04-26T04:44:35.167Z,69.04
2023-04-26T04:47:20.208Z,68.15
2023-04-26T04:50:06.860Z,68.54
2023-04-26T04:52:52.069Z,71.19
2023-04-26T04:55:37.710Z,68.77
2023-04-26T04:58:24.011Z,70.00
2023-04-26T05:01:09.785Z,69.17
2023-04-26T05:03:55.385Z,71.14
2023-04-26T05:06:41.099Z,72.87
2023-04-26T05:09:26.621Z,70.89
2023-04-26T05:12:11.410Z,72.92
2023-04-26T05:14:56.275Z,70.43
2023-04-26T05:17:41.911Z,71.20
2023-04-26T05:20:26.926Z,70.04
2023-04-26T05:23:12.141Z,70.97
2023-04-26T05:25:57.399Z,70.22
2023-04-26T05:28:42.887Z,70.00
2023-04-26T05:31:27.735Z,71.05
2023-04-26T05:34:12.975Z,70.45
2023-04-26T05:36:58.052Z,70.49
2023-04-26T05:39:43.945Z,69.66
2023-04-26T05:42:31.448Z,69.88
2023-04-26T05:45:16.711Z,69.35
2023-04-26T05:48:01.790Z,69.20
2023-04-26T05:50:47.150Z,68.78
2023-04-26T05:53:33.623Z,69.00
2023-04-26T05:56:18.529Z,69.15
2023-04-26T05:59:03.327Z,69.17
2023-04-26T06:01:48.287Z,68.89
2023-04-26T06:04:33.332Z,69.32
2023-04-26T06:07:18.788Z,70.03
2023-04-26T06:10:03.845Z,68.55
2023-04-26T06:12:48.881Z,70.16
2023-04-26T06:15:34.031Z,68.16
2023-04-26T06:18:18.905Z,67.50
2023-04-26T06:21:04.364Z,66.87
2023-04-26T06:23:49.548Z,67.10
2023-04-26T06:26:34.531Z,66.61
2023-04-26T06:29:20.663Z,67.52
2023-04-26T06:32:06.252Z,65.95
2023-04-26T06:34:51.151Z,65.90
2023-04-26T06:37:37.515Z,65.90
2023-04-26T06:40:22.301Z,64.24
2023-04-26T06:43:07.232Z,65.90
2023-04-26T06:45:52.061Z,65.67
2023-04-26T06:48:37.176Z,65.16
2023-04-26T06:51:22.321Z,66.37
2023-04-26T06:54:08.005Z,66.40
2023-04-26T06:56:52.935Z,66.28
2023-04-26T06:59:37.908Z,66.51
2023-04-26T07:02:24.374Z,64.42
2023-04-26T07:05:10.028Z,63.51
2023-04-26T07:07:54.714Z,64.64
2023-04-26T07:10:40.077Z,64.69
2023-04-26T07:13:24.915Z,64.20
2023-04-26T07:16:09.945Z,64.47
2023-04-26T07:18:58.090Z,66.06
2023-04-26T07:21:43.421Z,65.17
2023-04-26T07:24:28.803Z,63.59
2023-04-26T07:27:14.006Z,65.11
2023-04-26T07:29:59.299Z,63.97
2023-04-26T07:32:44.670Z,63.15
2023-04-26T07:35:29.607Z,62.89
2023-04-26T07:38:19.765Z,62.82
2023-04-26T07:41:04.962Z,61.78
2023-04-26T07:43:50.715Z,62.38
2023-04-26T07:46:36.028Z,62.73
2023-04-26T07:49:21.381Z,62.52
2023-04-26T07:52:06.270Z,62.13
2023-04-26T07:54:51.731Z,61.32
2023-04-26T07:57:37.605Z,59.36
2023-04-26T08:00:22.923Z,59.12
2023-04-26T08:03:08.394Z,56.49
2023-04-26T08:05:54.062Z,56.79
2023-04-26T08:08:45.003Z,55.20
2023-04-26T08:11:29.890Z,56.00
2023-04-26T08:14:14.958Z,53.19
2023-04-26T08:16:59.732Z,53.08
2023-04-26T08:19:44.738Z,53.86
2023-04-26T08:22:29.677Z,53.80
2023-04-26T08:25:15.265Z,53.38
2023-04-26T08:28:00.541Z,52.89
2023-04-26T08:30:46.093Z,53.60
2023-04-26T08:33:31.587Z,54.22
2023-04-26T08:36:16.584Z,51.95
2023-04-26T08:39:01.528Z,51.36
2023-04-26T08:41:57.348Z,51.76
2023-04-26T08:44:44.523Z,50.94
2023-04-26T08:47:38.350Z,49.67
2023-04-26T08:50:24.227Z,48.48
2023-04-26T08:53:11.545Z,45.44
2023-04-26T08:55:57.542Z,46.39
2023-04-26T08:58:42.540Z,46.54
2023-04-26T09:01:29.993Z,45.98
2023-04-26T09:04:15.143Z,45.26
2023-04-26T09:07:01.692Z,43.81
2023-04-26T09:09:51.871Z,46.04
2023-04-26T09:12:36.878Z,45.41
2023-04-26T09:15:23.776Z,45.52
2023-04-26T09:18:23.149Z,48.44
2023-04-26T09:21:09.290Z,48.85
2023-04-26T09:24:04.706Z,49.37
2023-04-26T09:27:03.080Z,50.60
2023-04-26T09:30:10.345Z,50.45
2023-04-26T09:33:07.611Z,51.25
2023-04-26T09:35:52.760Z,53.17
2023-04-26T09:38:42.790Z,50.46
2023-04-26T09:41:45.678Z,50.51
2023-04-26T09:44:31.986Z,48.93
2023-04-26T09:47:17.439Z,47.16
2023-04-26T09:50:02.665Z,45.32
2023-04-26T09:52:48.228Z,44.40
2023-04-26T09:55:35.545Z,46.64
2023-04-26T09:58:20.943Z,48.38
2023-04-26T10:01:08.084Z,48.79
2023-04-26T10:03:53.989Z,49.59
2023-04-26T10:06:39.415Z,48.73
2023-04-26T10:09:24.551Z,46.90
2023-04-26T10:12:11.826Z,46.36
2023-04-26T10:14:57.639Z,45.64
2023-04-26T10:17:45.227Z,45.00
2023-04-26T10:20:30.760Z,43.57
2023-04-26T10:23:22.403Z,43.27
2023-04-26T10:26:07.484Z,44.05
2023-04-26T10:28:56.141Z,42.68
2023-04-26T10:32:02.201Z,44.58
2023-04-26T10:35:13.236Z,44.49
2023-04-26T10:38:01.503Z,44.85
2023-04-26T10:40:50.014Z,45.26
2023-04-26T10:43:35.527Z,43.14
2023-04-26T10:46:40.775Z,45.82
2023-04-26T10:49:26.705Z,44.16
2023-04-26T10:52:23.017Z,44.13
2023-04-26T10:55:09.929Z,44.93
2023-04-26T10:57:56.280Z,44.72
2023-04-26T11:00:41.994Z,44.94
2023-04-26T11:03:30.969Z,43.23
2023-04-26T11:06:17.305Z,42.88
2023-04-26T11:09:02.114Z,42.50
2023-04-26T11:11:53.767Z,42.97
2023-04-26T11:14:41.532Z,44.21
2023-04-26T11:17:26.699Z,43.41
2023-04-26T11:20:16.318Z,44.53
2023-04-26T11:23:04.810Z,41.92
2023-04-26T11:25:50.309Z,41.27
2023-04-26T11:28:37.466Z,41.79
2023-04-26T11:31:22.699Z,40.43
2023-04-26T11:34:08.251Z,41.62
2023-04-26T11:36:53.758Z,41.08
2023-04-26T11:39:42.940Z,39.14
2023-04-26T11:42:27.967Z,38.84
2023-04-26T11:45:16.350Z,39.72
2023-04-26T11:48:03.116Z,39.89
2023-04-26T11:50:48.630Z,38.71
2023-04-26T11:53:38.382Z,38.94
2023-04-26T11:56:25.524Z,39.05
2023-04-26T11:59:11.357Z,39.25
2023-04-26T12:02:00.428Z,41.60
2023-04-26T12:04:46.647Z,42.22
2023-04-26T12:07:37.586Z,41.08
2023-04-26T12:10:27.059Z,40.19
2023-04-26T12:13:13.728Z,37.84
2023-04-26T12:15:59.122Z,38.64
2023-04-26T12:18:52.146Z,38.42
2023-04-26T12:21:43.476Z,39.45
2023-04-26T12:24:34.349Z,39.19
2023-04-26T12:27:24.853Z,41.21
2023-04-26T12:30:10.553Z,39.90
2023-04-26T12:33:05.824Z,38.90
2023-04-26T12:36:08.977Z,39.74
2023-04-26T12:38:54.156Z,39.48
2023-04-26T12:41:41.800Z,39.50
2023-04-26T12:44:27.005Z,40.42
2023-04-26T12:47:11.946Z,40.65
2023-04-26T12:49:57.579Z,39.98
2023-04-26T12:52:44.213Z,38.68
2023-04-26T12:55:32.590Z,39.14
2023-04-26T12:58:17.871Z,38.90
2023-04-26T13:01:02.842Z,38.95
2023-04-26T13:03:47.759Z,40.08
2023-04-26T13:06:40.476Z,41.20
2023-04-26T13:09:25.985Z,40.42
2023-04-26T13:12:11.054Z,41.62
2023-04-26T13:14:56.806Z,43.74
2023-04-26T13:17:43.213Z,41.71
2023-04-26T13:20:30.413Z,41.96
2023-04-26T13:23:16.611Z,42.66
2023-04-26T13:26:03.018Z,42.14
2023-04-26T13:28:48.259Z,41.46
2023-04-26T13:31:34.892Z,42.46
2023-04-26T13:34:21.419Z,43.37
2023-04-26T13:37:06.640Z,43.01
2023-04-26T13:39:52.157Z,43.47
2023-04-26T13:42:37.683Z,43.24
2023-04-26T13:45:22.553Z,41.39
2023-04-26T13:48:07.560Z,39.75
2023-04-26T13:50:53.055Z,39.98
2023-04-26T13:53:38.273Z,40.28
2023-04-26T13:56:26.128Z,41.02
2023-04-26T13:59:11.052Z,41.60
2023-04-26T14:01:58.353Z,40.86
2023-04-26T14:04:44.790Z,40.50
2023-04-26T14:07:29.892Z,41.13
2023-04-26T14:10:15.442Z,44.23
2023-04-26T14:13:00.595Z,41.29
2023-04-26T14:15:45.689Z,41.67
2023-04-26T14:18:31.962Z,42.24
2023-04-26T14:21:18.168Z,43.31
2023-04-26T14:24:04.152Z,43.23
2023-04-26T14:26:49.117Z,42.77
2023-04-26T14:29:34.834Z,43.68
2023-04-26T14:32:19.989Z,43.37
2023-04-26T14:35:05.336Z,42.55
2023-04-26T14:37:50.472Z,41.96
2023-04-26T14:40:37.512Z,44.28
2023-04-26T14:43:22.654Z,42.53
2023-04-26T14:46:09.865Z,43.23
2023-04-26T14:48:55.994Z,43.44
2023-04-26T14:51:41.275Z,44.16
2023-04-26T14:54:26.138Z,44.62
2023-04-26T14:57:12.121Z,44.44
2023-04-26T15:00:02.174Z,45.55
2023-04-26T15:02:48.710Z,44.85
2023-04-26T15:05:33.756Z,45.48
2023-04-26T15:08:19.574Z,45.91
2023-04-26T15:11:04.746Z,46.74
2023-04-26T15:13:49.763Z,47.36
2023-04-26T15:16:35.001Z,47.31
2023-04-26T15:19:19.943Z,47.32
2023-04-26T15:22:05.700Z,46.94
2023-04-26T15:24:51.008Z,47.33
2023-04-26T15:27:37.660Z,47.94
2023-04-26T15:30:22.651Z,46.29
2023-04-26T15:33:09.822Z,44.16
2023-04-26T15:35:54.911Z,43.68
2023-04-26T15:38:41.948Z,43.68
2023-04-26T15:41:29.234Z,41.52
2023-04-26T15:44:14.265Z,41.40
2023-04-26T15:47:02.349Z,42.89
2023-04-26T15:49:48.288Z,44.12
2023-04-26T15:52:37.837Z,43.29
2023-04-26T15:55:24.240Z,42.86
2023-04-26T15:58:09.458Z,43.54
2023-04-26T16:00:54.474Z,43.75
2023-04-26T16:03:42.750Z,44.46
2023-04-26T16:06:33.133Z,45.26
2023-04-26T16:09:25.204Z,45.57
2023-04-26T16:12:11.350Z,46.59
2023-04-26T16:14:57.855Z,47.92
2023-04-26T16:17:42.906Z,49.35
2023-04-26T16:20:28.077Z,50.61
2023-04-26T16:23:13.147Z,52.82
2023-04-26T16:25:58.462Z,54.57
2023-04-26T16:28:43.861Z,54.76
2023-04-26T16:31:29.486Z,55.41
2023-04-26T16:34:14.392Z,56.44
2023-04-26T16:36:59.219Z,56.62
2023-04-26T16:39:44.312Z,56.77
2023-04-26T16:42:29.873Z,56.72
2023-04-26T16:45:16.490Z,56.25
2023-04-26T16:48:02.109Z,55.70
2023-04-26T16:50:46.917Z,56.02
2023-04-26T16:53:32.766Z,55.58
2023-04-26T16:56:17.634Z,55.51
2023-04-26T16:59:02.603Z,55.95
2023-04-26T17:01:47.688Z,54.73
2023-04-26T17:04:33.493Z,54.64
2023-04-26T17:07:18.595Z,54.87
2023-04-26T17:10:05.922Z,53.14
2023-04-26T17:12:51.140Z,53.40
2023-04-26T17:15:38.061Z,52.44
2023-04-26T17:18:24.169Z,53.25
2023-04-26T17:21:09.918Z,52.15
2023-04-26T17:23:55.083Z,53.07
2023-04-26T17:26:40.891Z,51.32
2023-04-26T17:29:26.303Z,52.05
2023-04-26T17:32:11.637Z,52.75
2023-04-26T17:34:56.561Z,52.27
2023-04-26T17:37:49.529Z,51.94
2023-04-26T17:40:34.288Z,52.01
2023-04-26T17:43:21.036Z,52.41
2023-04-26T17:46:06.577Z,53.25
2023-04-26T17:48:51.704Z,53.04
2023-04-26T17:51:36.654Z,53.28
2023-04-26T17:54:21.884Z,52.66
2023-04-26T17:57:07.728Z,54.87
2023-04-26T17:59:53.269Z,55.73
2023-04-26T18:02:38.874Z,53.51
2023-04-26T18:05:24.449Z,53.87
2023-04-26T18:08:09.506Z,52.63
2023-04-26T18:10:55.606Z,52.29
2023-04-26T18:13:41.220Z,53.06
2023-04-26T18:16:29.928Z,54.84
2023-04-26T18:19:16.345Z,55.55
2023-04-26T18:22:01.161Z,55.54
2023-04-26T18:24:47.064Z,55.43
2023-04-26T18:27:32.408Z,53.84
2023-04-26T18:30:18.217Z,55.79
2023-04-26T18:33:04.053Z,56.12
2023-04-26T18:35:50.624Z,56.19
2023-04-26T18:38:36.128Z,57.39
2023-04-26T18:41:21.218Z,56.19
2023-04-26T18:44:12.844Z,56.11
2023-04-26T18:46:57.783Z,55.63
2023-04-26T18:49:42.671Z,56.44
2023-04-26T18:52:28.091Z,55.73
2023-04-26T18:55:14.327Z,55.26
2023-04-26T18:58:01.621Z,55.42
2023-04-26T19:00:50.084Z,56.26
2023-04-26T19:03:35.041Z,55.57
2023-04-26T19:06:19.898Z,57.49
2023-04-26T19:09:06.564Z,58.04
2023-04-26T19:11:52.194Z,56.58
2023-04-26T19:14:39.112Z,55.70
2023-04-26T19:17:24.285Z,58.24
2023-04-26T19:20:20.074Z,57.77
2023-04-26T19:23:07.117Z,55.96
2023-04-26T19:25:52.262Z,58.45
2023-04-26T19:28:37.798Z,56.99
2023-04-26T19:31:29.164Z,57.74
2023-04-26T19:34:14.352Z,58.17
2023-04-26T19:36:59.161Z,58.41
2023-04-26T19:39:44.252Z,57.65
2023-04-26T19:42:29.991Z,57.73
2023-04-26T19:45:17.332Z,58.75
2023-04-26T19:48:04.599Z,58.97
2023-04-26T19:50:49.586Z,59.41
2023-04-26T19:53:35.447Z,58.00
2023-04-26T19:56:20.463Z,57.47
2023-04-26T19:59:07.515Z,58.43
2023-04-26T20:01:55.051Z,57.54
2023-04-26T20:04:41.959Z,58.46
2023-04-26T20:07:27.866Z,58.82
2023-04-26T20:10:13.051Z,58.67
2023-04-26T20:13:01.833Z,57.19
2023-04-26T20:15:46.809Z,58.57
2023-04-26T20:18:32.332Z,57.71
2023-04-26T20:21:17.460Z,58.15
2023-04-26T20:24:02.550Z,57.16
2023-04-26T20:26:47.602Z,57.36
2023-04-26T20:29:32.412Z,58.12
2023-04-26T20:32:17.350Z,57.58
2023-04-26T20:35:03.009Z,58.31
2023-04-26T20:37:48.088Z,58.52
2023-04-26T20:40:33.134Z,58.84
2023-04-26T20:43:18.289Z,58.29
2023-04-26T20:46:03.670Z,58.63
2023-04-26T20:48:49.120Z,57.95
2023-04-26T20:51:34.469Z,57.49
2023-04-26T20:54:20.771Z,57.89
2023-04-26T20:57:06.206Z,58.23
2023-04-26T20:59:51.146Z,59.36
2023-04-26T21:02:37.706Z,60.32
2023-04-26T21:05:23.978Z,58.23
2023-04-26T21:08:09.106Z,58.01
2023-04-26T21:10:53.889Z,59.20
2023-04-26T21:13:39.341Z,59.13
2023-04-26T21:16:27.839Z,58.44
2023-04-26T21:19:13.044Z,57.92
2023-04-26T21:21:57.891Z,59.05
2023-04-26T21:24:42.686Z,58.55
2023-04-26T21:27:29.018Z,59.00
2023-04-26T21:30:15.003Z,58.31
2023-04-26T21:32:59.984Z,59.02
2023-04-26T21:35:45.319Z,59.79
2023-04-26T21:38:30.389Z,59.68
2023-04-26T21:41:15.536Z,59.80
2023-04-26T21:44:01.409Z,59.73
2023-04-26T21:46:46.304Z,59.79
2023-04-26T21:49:31.722Z,57.56
2023-04-26T21:52:16.721Z,59.80
2023-04-26T21:55:02.182Z,58.39
2023-04-26T21:57:47.213Z,58.60
2023-04-26T22:00:32.546Z,59.81
2023-04-26T22:03:18.139Z,59.04
2023-04-26T22:06:08.331Z,59.26
2023-04-26T22:08:53.115Z,59.25
2023-04-26T22:11:38.346Z,58.19
2023-04-26T22:14:23.453Z,60.30
2023-04-26T22:17:08.539Z,60.67
2023-04-26T22:19:55.400Z,59.50
2023-04-26T22:22:40.747Z,59.57
2023-04-26T22:25:26.563Z,59.63
2023-04-26T22:28:11.467Z,60.20
2023-04-26T22:30:56.253Z,60.97
2023-04-26T22:33:41.045Z,60.10
2023-04-26T22:36:25.948Z,59.58
2023-04-26T22:39:11.007Z,60.85
2023-04-26T22:41:56.197Z,59.06
2023-04-26T22:44:41.811Z,59.64
2023-04-26T22:47:27.014Z,60.27
2023-04-26T22:50:12.297Z,59.88
2023-04-26T22:52:57.129Z,59.88
2023-04-26T22:55:42.652Z,59.84
2023-04-26T22:58:27.485Z,59.60
2023-04-26T23:01:12.709Z,59.59
2023-04-26T23:03:57.665Z,60.27
2023-04-26T23:06:44.010Z,59.79
2023-04-26T23:09:28.858Z,59.99
2023-04-26T23:12:19.250Z,59.66
2023-04-26T23:15:05.168Z,59.92
2023-04-26T23:17:50.408Z,59.49
2023-04-26T23:20:35.712Z,60.55
2023-04-26T23:23:20.896Z,60.13
2023-04-26T23:26:08.369Z,60.08
2023-04-26T23:28:53.973Z,60.37
2023-04-26T23:31:39.762Z,60.47
2023-04-26T23:34:24.913Z,60.54
2023-04-26T23:37:09.872Z,59.74
2023-04-26T23:39:54.630Z,60.26
2023-04-26T23:42:40.899Z,60.38
2023-04-26T23:45:26.098Z,60.47
2023-04-26T23:48:11.153Z,59.87
2023-04-26T23:50:56.344Z,60.20
2023-04-26T23:53:41.589Z,59.75
2023-04-26T23:56:26.470Z,60.38
2023-04-26T23:59:11.401Z,59.74
